createdAt,value
2023-03-07T00:00:08.911Z,65.23
2023-03-07T00:02:38.823Z,64.62
2023-03-07T00:05:08.888Z,64.76
2023-03-07T00:07:37.141Z,64.50
2023-03-07T00:10:04.118Z,64.32
2023-03-07T00:12:31.056Z,64.80
2023-03-07T00:14:57.542Z,64.95
2023-03-07T00:17:23.999Z,64.62
2023-03-07T00:19:50.498Z,64.15
2023-03-07T00:22:17.010Z,64.29
2023-03-07T00:24:43.509Z,66.05
2023-03-07T00:27:10.324Z,66.50
2023-03-07T00:29:39.847Z,67.12
2023-03-07T00:32:09.203Z,67.28
2023-03-07T00:34:36.713Z,67.83
2023-03-07T00:37:03.217Z,68.05
2023-03-07T00:39:29.671Z,67.35
2023-03-07T00:41:56.135Z,67.07
2023-03-07T00:44:22.625Z,66.97
2023-03-07T00:46:49.102Z,66.81
2023-03-07T00:49:15.525Z,67.23
2023-03-07T00:51:41.944Z,67.96
2023-03-07T00:54:11.926Z,67.97
2023-03-07T00:56:41.650Z,67.69
2023-03-07T00:59:11.551Z,67.38
2023-03-07T01:01:41.715Z,67.43
2023-03-07T01:04:10.966Z,67.40
2023-03-07T01:06:38.182Z,67.53
2023-03-07T01:09:08.373Z,67.19
2023-03-07T01:11:36.976Z,67.28
2023-03-07T01:14:05.870Z,66.71
2023-03-07T01:16:34.352Z,66.42
2023-03-07T01:19:04.615Z,66.38
2023-03-07T01:21:34.049Z,66.92
2023-03-07T01:24:01.003Z,66.99
2023-03-07T01:26:30.198Z,66.38
2023-03-07T01:28:58.902Z,66.76
2023-03-07T01:31:26.210Z,66.06
2023-03-07T01:33:53.799Z,66.38
2023-03-07T01:36:21.660Z,65.53
2023-03-07T01:38:49.261Z,65.41
2023-03-07T01:41:16.815Z,66.02
2023-03-07T01:43:43.464Z,66.29
2023-03-07T01:46:18.873Z,66.76
2023-03-07T01:48:48.853Z,67.11
2023-03-07T01:51:15.510Z,67.93
2023-03-07T01:53:45.962Z,68.66
2023-03-07T01:56:13.145Z,68.33
2023-03-07T01:58:42.051Z,68.09
2023-03-07T02:01:15.388Z,66.66
2023-03-07T02:04:15.120Z,66.43
2023-03-07T02:06:46.018Z,66.51
2023-03-07T02:09:18.567Z,66.99
2023-03-07T02:11:46.110Z,67.28
2023-03-07T02:14:13.714Z,67.91
2023-03-07T02:16:41.031Z,68.06
2023-03-07T02:19:30.358Z,68.21
2023-03-07T02:22:09.717Z,68.78
2023-03-07T02:25:15.350Z,68.75
2023-03-07T02:27:45.107Z,68.08
2023-03-07T02:30:12.342Z,68.60
2023-03-07T02:32:38.945Z,68.11
2023-03-07T02:35:19.677Z,68.26
2023-03-07T02:37:49.709Z,68.84
2023-03-07T02:40:19.596Z,69.80
2023-03-07T02:42:47.282Z,69.75
2023-03-07T02:45:19.065Z,68.92
2023-03-07T02:47:46.075Z,67.62
2023-03-07T02:50:17.548Z,67.39
2023-03-07T02:52:47.800Z,68.24
2023-03-07T02:55:17.203Z,69.21
2023-03-07T02:57:46.199Z,69.75
2023-03-07T03:00:15.370Z,71.39
2023-03-07T03:02:41.850Z,72.27
2023-03-07T03:05:09.192Z,72.04
2023-03-07T03:07:35.697Z,72.13
2023-03-07T03:10:02.574Z,71.16
2023-03-07T03:12:29.103Z,72.35
2023-03-07T03:14:55.556Z,73.11
2023-03-07T03:17:22.119Z,73.57
2023-03-07T03:19:48.623Z,74.40
2023-03-07T03:22:20.440Z,74.69
2023-03-07T03:24:49.709Z,74.67
2023-03-07T03:27:20.128Z,74.02
2023-03-07T03:29:47.299Z,74.66
2023-03-07T03:32:13.782Z,74.79
2023-03-07T03:34:40.630Z,74.12
2023-03-07T03:37:07.862Z,73.91
2023-03-07T03:39:34.304Z,75.57
2023-03-07T03:42:00.971Z,75.09
2023-03-07T03:44:27.481Z,74.92
2023-03-07T03:46:55.729Z,75.64
2023-03-07T03:49:22.309Z,76.31
2023-03-07T03:51:49.431Z,76.15
2023-03-07T03:54:18.408Z,76.62
2023-03-07T03:56:45.233Z,76.65
2023-03-07T03:59:11.867Z,77.06
2023-03-07T04:01:38.423Z,78.55
2023-03-07T04:04:05.016Z,79.34
2023-03-07T04:06:34.072Z,79.23
2023-03-07T04:09:00.994Z,78.50
2023-03-07T04:11:27.535Z,78.95
2023-03-07T04:13:54.254Z,80.06
2023-03-07T04:16:22.473Z,81.36
2023-03-07T04:18:52.405Z,80.16
2023-03-07T04:21:22.595Z,79.30
2023-03-07T04:23:55.353Z,79.16
2023-03-07T04:26:22.268Z,80.77
2023-03-07T04:28:51.597Z,81.06
2023-03-07T04:31:23.282Z,80.82
2023-03-07T04:33:56.045Z,79.04
2023-03-07T04:36:23.805Z,78.11
2023-03-07T04:38:53.991Z,78.96
2023-03-07T04:41:26.622Z,77.13
2023-03-07T04:43:53.258Z,76.52
2023-03-07T04:46:20.927Z,76.49
2023-03-07T04:48:47.629Z,76.47
2023-03-07T04:51:14.674Z,77.00
2023-03-07T04:53:41.162Z,76.52
2023-03-07T04:56:09.161Z,76.11
2023-03-07T04:58:36.504Z,75.00
2023-03-07T05:01:04.129Z,75.09
2023-03-07T05:03:30.635Z,74.98
2023-03-07T05:06:02.882Z,74.50
2023-03-07T05:08:29.810Z,75.39
2023-03-07T05:10:56.632Z,75.41
2023-03-07T05:13:25.966Z,75.30
2023-03-07T05:15:57.412Z,75.34
2023-03-07T05:18:24.772Z,75.26
2023-03-07T05:20:54.510Z,74.50
2023-03-07T05:23:25.148Z,74.73
2023-03-07T05:25:53.757Z,74.15
2023-03-07T05:28:20.278Z,73.85
2023-03-07T05:30:47.737Z,73.54
2023-03-07T05:33:15.103Z,74.14
2023-03-07T05:35:41.734Z,75.05
2023-03-07T05:38:08.255Z,73.89
2023-03-07T05:40:34.973Z,74.05
2023-03-07T05:43:01.715Z,73.81
2023-03-07T05:45:28.250Z,74.66
2023-03-07T05:47:54.806Z,74.19
2023-03-07T05:50:23.678Z,73.91
2023-03-07T05:52:50.165Z,75.21
2023-03-07T05:55:16.708Z,75.08
2023-03-07T05:57:43.226Z,75.31
2023-03-07T06:00:11.335Z,74.74
2023-03-07T06:02:37.786Z,75.90
2023-03-07T06:05:04.520Z,75.70
2023-03-07T06:07:30.986Z,76.92
2023-03-07T06:09:57.558Z,77.74
2023-03-07T06:12:27.189Z,78.99
2023-03-07T06:14:56.691Z,80.41
2023-03-07T06:17:26.197Z,80.60
2023-03-07T06:19:55.598Z,81.22
2023-03-07T06:22:24.445Z,83.30
2023-03-07T06:24:50.976Z,84.12
2023-03-07T06:27:17.586Z,84.50
2023-03-07T06:29:44.093Z,84.46
2023-03-07T06:32:10.622Z,85.14
2023-03-07T06:34:37.380Z,84.66
2023-03-07T06:37:03.949Z,85.98
2023-03-07T06:39:31.495Z,85.32
2023-03-07T06:41:58.419Z,86.10
2023-03-07T06:44:25.270Z,83.41
2023-03-07T06:46:54.311Z,82.47
2023-03-07T06:49:21.061Z,82.19
2023-03-07T06:51:47.940Z,82.30
2023-03-07T06:54:14.799Z,81.50
2023-03-07T06:56:43.587Z,82.55
2023-03-07T06:59:12.148Z,82.73
2023-03-07T07:01:38.992Z,81.72
2023-03-07T07:04:05.864Z,82.69
2023-03-07T07:06:32.808Z,82.06
2023-03-07T07:09:00.107Z,81.43
2023-03-07T07:11:27.302Z,79.87
2023-03-07T07:13:56.925Z,78.82
2023-03-07T07:16:27.090Z,79.63
2023-03-07T07:18:54.384Z,78.64
2023-03-07T07:21:21.683Z,77.43
2023-03-07T07:23:48.225Z,76.24
2023-03-07T07:26:14.700Z,77.02
2023-03-07T07:28:41.178Z,77.76
2023-03-07T07:31:07.709Z,79.07
2023-03-07T07:33:34.408Z,78.71
2023-03-07T07:36:01.027Z,79.04
2023-03-07T07:38:27.685Z,79.85
2023-03-07T07:40:56.329Z,80.14
2023-03-07T07:43:22.854Z,79.07
2023-03-07T07:45:49.295Z,79.23
2023-03-07T07:48:16.453Z,78.41
2023-03-07T07:50:45.408Z,77.19
2023-03-07T07:53:11.931Z,75.92
2023-03-07T07:55:38.476Z,75.53
2023-03-07T07:58:05.588Z,74.65
2023-03-07T08:00:32.372Z,74.50
2023-03-07T08:02:59.304Z,73.73
2023-03-07T08:05:28.793Z,72.84
2023-03-07T08:08:04.741Z,72.58
2023-03-07T08:10:31.234Z,71.87
2023-03-07T08:13:00.795Z,72.01
2023-03-07T08:15:27.267Z,72.16
2023-03-07T08:17:55.978Z,72.12
2023-03-07T08:20:23.570Z,71.74
2023-03-07T08:22:52.840Z,72.31
2023-03-07T08:25:24.284Z,72.28
2023-03-07T08:27:59.013Z,72.75
2023-03-07T08:30:30.205Z,72.88
2023-03-07T08:32:57.465Z,71.96
2023-03-07T08:35:28.458Z,72.44
2023-03-07T08:38:00.512Z,72.46
2023-03-07T08:40:30.770Z,70.97
2023-03-07T08:42:59.340Z,70.78
2023-03-07T08:45:28.599Z,70.83
2023-03-07T08:47:58.484Z,72.57
2023-03-07T08:50:28.743Z,72.70
2023-03-07T08:52:57.623Z,73.94
2023-03-07T08:55:26.566Z,72.86
2023-03-07T08:57:53.038Z,72.70
2023-03-07T09:00:19.826Z,73.61
2023-03-07T09:02:46.322Z,74.88
2023-03-07T09:05:12.822Z,74.33
2023-03-07T09:07:39.381Z,72.99
2023-03-07T09:10:06.501Z,72.91
2023-03-07T09:12:34.189Z,73.87
2023-03-07T09:15:00.820Z,74.64
2023-03-07T09:17:27.326Z,74.65
2023-03-07T09:19:55.929Z,73.52
2023-03-07T09:22:22.356Z,71.94
2023-03-07T09:24:48.818Z,73.93
2023-03-07T09:27:15.322Z,73.04
2023-03-07T09:29:41.848Z,73.81
2023-03-07T09:32:08.373Z,73.20
2023-03-07T09:34:34.914Z,73.12
2023-03-07T09:37:01.381Z,73.92
2023-03-07T09:39:27.951Z,72.09
2023-03-07T09:41:56.907Z,71.83
2023-03-07T09:44:35.195Z,70.02
2023-03-07T09:47:41.307Z,68.82
2023-03-07T09:50:26.692Z,69.82
2023-03-07T09:52:57.797Z,70.54
2023-03-07T09:55:28.529Z,69.43
2023-03-07T09:58:03.948Z,70.27
2023-03-07T10:00:46.035Z,71.11
2023-03-07T10:03:31.381Z,70.32
2023-03-07T10:06:07.564Z,69.22
2023-03-07T10:08:34.565Z,69.64
2023-03-07T10:11:16.809Z,69.75
2023-03-07T10:14:06.230Z,67.69
2023-03-07T10:16:56.546Z,69.88
2023-03-07T10:19:35.922Z,68.36
2023-03-07T10:22:45.152Z,67.69
2023-03-07T10:25:18.897Z,67.64
2023-03-07T10:27:48.236Z,68.32
2023-03-07T10:30:18.614Z,68.32
2023-03-07T10:32:53.762Z,68.52
2023-03-07T10:35:26.539Z,67.95
2023-03-07T10:38:05.347Z,67.35
2023-03-07T10:40:56.908Z,67.34
2023-03-07T10:43:34.314Z,67.67
2023-03-07T10:46:26.593Z,67.26
2023-03-07T10:49:01.495Z,67.08
2023-03-07T10:52:06.641Z,65.38
2023-03-07T10:54:37.435Z,65.46
2023-03-07T10:57:26.815Z,64.14
2023-03-07T10:59:53.500Z,65.48
2023-03-07T11:02:32.192Z,64.22
2023-03-07T11:04:59.139Z,64.89
2023-03-07T11:07:34.613Z,63.84
2023-03-07T11:10:12.625Z,64.08
2023-03-07T11:12:46.262Z,62.87
2023-03-07T11:15:25.066Z,62.91
2023-03-07T11:17:52.821Z,63.63
2023-03-07T11:20:26.283Z,62.49
2023-03-07T11:23:14.810Z,62.45
2023-03-07T11:25:41.369Z,62.72
2023-03-07T11:28:30.047Z,61.73
2023-03-07T11:31:55.882Z,60.70
2023-03-07T11:34:28.185Z,62.25
2023-03-07T11:37:15.097Z,61.36
2023-03-07T11:39:57.798Z,61.23
2023-03-07T11:42:31.764Z,61.44
2023-03-07T11:45:22.034Z,59.16
2023-03-07T11:48:01.138Z,59.86
2023-03-07T11:50:31.155Z,59.81
2023-03-07T11:53:03.897Z,59.34
2023-03-07T11:55:41.532Z,59.42
2023-03-07T11:58:30.373Z,60.48
2023-03-07T12:00:59.628Z,61.09
2023-03-07T12:04:01.681Z,60.41
2023-03-07T12:06:37.300Z,60.74
2023-03-07T12:09:26.287Z,60.26
2023-03-07T12:12:10.936Z,59.83
2023-03-07T12:15:00.697Z,59.74
2023-03-07T12:18:14.506Z,59.20
2023-03-07T12:21:02.250Z,60.21
2023-03-07T12:23:48.452Z,58.72
2023-03-07T12:26:28.792Z,57.59
2023-03-07T12:29:26.952Z,58.13
2023-03-07T12:32:00.660Z,58.66
2023-03-07T12:34:39.096Z,59.20
2023-03-07T12:37:18.642Z,58.13
2023-03-07T12:39:49.154Z,57.60
2023-03-07T12:42:33.938Z,58.00
2023-03-07T12:45:12.850Z,58.17
2023-03-07T12:47:53.609Z,56.96
2023-03-07T12:50:46.369Z,57.33
2023-03-07T12:53:47.163Z,57.35
2023-03-07T12:56:22.054Z,57.79
2023-03-07T12:58:58.307Z,56.75
2023-03-07T13:01:48.909Z,58.70
2023-03-07T13:04:38.531Z,59.95
2023-03-07T13:07:12.569Z,58.36
2023-03-07T13:09:45.912Z,58.45
2023-03-07T13:12:26.046Z,58.96
2023-03-07T13:15:04.757Z,59.58
2023-03-07T13:17:31.575Z,59.71
2023-03-07T13:20:01.001Z,60.62
2023-03-07T13:22:30.654Z,60.23
2023-03-07T13:25:20.074Z,59.82
2023-03-07T13:27:54.034Z,60.75
2023-03-07T13:30:30.184Z,62.25
2023-03-07T13:33:29.062Z,62.50
2023-03-07T13:36:00.547Z,60.69
2023-03-07T13:38:42.346Z,60.02
2023-03-07T13:41:11.259Z,59.57
2023-03-07T13:43:47.031Z,61.03
2023-03-07T13:46:54.401Z,61.64
2023-03-07T13:49:35.035Z,64.52
2023-03-07T13:52:22.865Z,63.78
2023-03-07T13:54:51.029Z,64.23
2023-03-07T13:57:27.265Z,64.50
2023-03-07T13:59:56.525Z,64.79
2023-03-07T14:02:23.631Z,63.82
2023-03-07T14:04:55.701Z,64.98
2023-03-07T14:07:36.608Z,63.42
2023-03-07T14:10:22.059Z,63.47
2023-03-07T14:13:21.892Z,63.38
2023-03-07T14:16:04.360Z,62.23
2023-03-07T14:18:40.233Z,59.59
2023-03-07T14:21:31.753Z,60.40
2023-03-07T14:24:10.433Z,59.56
2023-03-07T14:26:50.889Z,58.49
2023-03-07T14:29:22.882Z,59.16
2023-03-07T14:31:53.052Z,57.72
2023-03-07T14:34:19.552Z,59.46
2023-03-07T14:36:50.184Z,58.79
2023-03-07T14:39:17.947Z,56.62
2023-03-07T14:42:03.000Z,55.17
2023-03-07T14:45:06.081Z,54.51
2023-03-07T14:47:38.098Z,54.76
2023-03-07T14:50:12.706Z,54.65
2023-03-07T14:52:39.261Z,54.48
2023-03-07T14:55:07.160Z,54.53
2023-03-07T14:57:37.637Z,54.61
2023-03-07T15:00:07.361Z,63.21
2023-03-07T15:02:33.903Z,53.79
2023-03-07T15:05:02.492Z,51.21
2023-03-07T15:07:29.008Z,52.37
2023-03-07T15:09:55.565Z,51.45
2023-03-07T15:12:27.506Z,51.96
2023-03-07T15:15:04.367Z,53.17
2023-03-07T15:17:45.070Z,53.15
2023-03-07T15:20:22.917Z,53.20
2023-03-07T15:22:49.950Z,53.42
2023-03-07T15:25:25.541Z,54.50
2023-03-07T15:28:06.077Z,53.89
2023-03-07T15:30:35.373Z,52.39
2023-03-07T15:33:19.770Z,52.28
2023-03-07T15:36:06.830Z,50.63
2023-03-07T15:38:36.804Z,50.36
2023-03-07T15:41:36.295Z,51.29
2023-03-07T15:44:22.161Z,50.44
2023-03-07T15:46:51.844Z,49.24
2023-03-07T15:49:42.106Z,49.75
2023-03-07T15:52:20.078Z,50.56
2023-03-07T15:54:50.942Z,51.07
2023-03-07T15:57:22.415Z,51.01
2023-03-07T15:59:53.981Z,51.75
2023-03-07T16:02:37.826Z,51.93
2023-03-07T16:05:24.416Z,52.16
2023-03-07T16:07:53.190Z,51.42
2023-03-07T16:10:21.634Z,51.05
2023-03-07T16:12:49.128Z,51.15
2023-03-07T16:15:18.546Z,52.09
2023-03-07T16:17:46.943Z,51.81
2023-03-07T16:20:19.586Z,52.02
2023-03-07T16:22:49.553Z,52.71
2023-03-07T16:25:16.976Z,53.53
2023-03-07T16:27:53.332Z,53.44
2023-03-07T16:30:26.196Z,54.10
2023-03-07T16:32:52.945Z,54.38
2023-03-07T16:35:21.998Z,54.85
2023-03-07T16:37:48.649Z,55.83
2023-03-07T16:40:16.190Z,56.50
2023-03-07T16:42:45.782Z,56.32
2023-03-07T16:45:35.332Z,56.13
2023-03-07T16:48:03.349Z,56.42
2023-03-07T16:50:34.787Z,58.02
2023-03-07T16:53:03.786Z,57.04
2023-03-07T16:55:34.269Z,56.99
2023-03-07T16:58:05.811Z,57.29
2023-03-07T17:00:35.227Z,57.85
2023-03-07T17:03:04.977Z,57.42
2023-03-07T17:05:34.650Z,57.93
2023-03-07T17:08:04.907Z,58.06
2023-03-07T17:10:36.366Z,58.57
2023-03-07T17:13:08.323Z,58.89
2023-03-07T17:15:36.501Z,59.31
2023-03-07T17:18:03.701Z,59.90
2023-03-07T17:20:33.764Z,60.07
2023-03-07T17:23:02.578Z,60.45
2023-03-07T17:25:29.189Z,61.24
2023-03-07T17:28:09.042Z,61.62
2023-03-07T17:30:37.697Z,61.83
2023-03-07T17:33:04.426Z,62.20
2023-03-07T17:35:34.606Z,63.77
2023-03-07T17:38:03.969Z,65.45
2023-03-07T17:40:35.213Z,62.65
2023-03-07T17:43:03.821Z,62.64
2023-03-07T17:45:30.469Z,62.13
2023-03-07T17:47:57.396Z,61.70
2023-03-07T17:50:24.533Z,62.11
2023-03-07T17:52:52.803Z,62.13
2023-03-07T17:55:20.297Z,62.79
2023-03-07T17:57:46.754Z,62.78
2023-03-07T18:00:14.344Z,62.17
2023-03-07T18:02:45.026Z,61.42
2023-03-07T18:05:13.125Z,61.82
2023-03-07T18:07:41.332Z,62.23
2023-03-07T18:10:09.161Z,62.12
2023-03-07T18:12:39.037Z,62.26
2023-03-07T18:15:13.503Z,62.90
2023-03-07T18:17:47.895Z,62.99
2023-03-07T18:20:17.725Z,63.56
2023-03-07T18:22:44.266Z,64.42
2023-03-07T18:25:12.999Z,64.03
2023-03-07T18:27:39.509Z,64.11
2023-03-07T18:30:12.215Z,64.54
2023-03-07T18:32:38.801Z,65.02
2023-03-07T18:35:05.944Z,65.37
2023-03-07T18:37:35.758Z,65.60
2023-03-07T18:40:05.935Z,65.76
2023-03-07T18:42:35.887Z,65.23
2023-03-07T18:45:06.177Z,65.37
2023-03-07T18:47:35.679Z,65.62
2023-03-07T18:50:05.693Z,65.83
2023-03-07T18:52:35.282Z,66.75
2023-03-07T18:55:05.459Z,66.29
2023-03-07T18:57:35.048Z,65.49
2023-03-07T19:00:04.199Z,65.96
2023-03-07T19:02:32.868Z,65.50
2023-03-07T19:05:05.261Z,65.34
2023-03-07T19:07:41.149Z,66.55
2023-03-07T19:10:11.673Z,67.24
2023-03-07T19:12:39.055Z,68.08
2023-03-07T19:15:06.504Z,68.66
2023-03-07T19:17:40.622Z,68.71
2023-03-07T19:20:08.157Z,68.98
2023-03-07T19:22:37.936Z,68.80
2023-03-07T19:25:05.392Z,69.56
2023-03-07T19:27:34.731Z,69.84
2023-03-07T19:30:04.128Z,70.29
2023-03-07T19:32:30.647Z,69.40
2023-03-07T19:34:57.194Z,69.05
2023-03-07T19:37:23.996Z,68.85
2023-03-07T19:39:53.819Z,69.46
2023-03-07T19:42:21.652Z,70.42
2023-03-07T19:44:48.151Z,72.00
2023-03-07T19:47:14.673Z,73.79
2023-03-07T19:49:41.108Z,74.15
2023-03-07T19:52:07.654Z,74.14
2023-03-07T19:54:34.247Z,75.28
2023-03-07T19:57:00.724Z,74.95
2023-03-07T19:59:27.197Z,75.43
2023-03-07T20:01:53.696Z,75.58
2023-03-07T20:04:20.177Z,75.82
2023-03-07T20:06:46.747Z,76.33
2023-03-07T20:09:14.045Z,76.84
2023-03-07T20:11:43.283Z,77.96
2023-03-07T20:14:11.491Z,77.84
2023-03-07T20:16:38.191Z,77.91
2023-03-07T20:19:07.070Z,76.94
2023-03-07T20:21:36.822Z,77.46
2023-03-07T20:24:07.416Z,77.82
2023-03-07T20:26:36.373Z,78.02
2023-03-07T20:29:07.780Z,77.73
2023-03-07T20:31:34.666Z,78.79
2023-03-07T20:34:04.401Z,78.75
2023-03-07T20:36:36.679Z,78.53
2023-03-07T20:39:10.053Z,78.56
2023-03-07T20:41:39.361Z,76.75
2023-03-07T20:44:07.772Z,76.89
2023-03-07T20:46:35.722Z,77.22
2023-03-07T20:49:07.518Z,77.85
2023-03-07T20:51:36.944Z,77.82
2023-03-07T20:54:14.627Z,77.77
2023-03-07T20:56:41.888Z,77.57
2023-03-07T20:59:12.010Z,77.42
2023-03-07T21:01:38.949Z,78.06
2023-03-07T21:04:11.677Z,77.91
2023-03-07T21:06:41.170Z,78.16
2023-03-07T21:09:10.184Z,78.57
2023-03-07T21:11:38.853Z,79.36
2023-03-07T21:14:05.548Z,79.32
2023-03-07T21:16:34.185Z,79.33
2023-03-07T21:19:06.017Z,79.72
2023-03-07T21:21:36.559Z,79.39
2023-03-07T21:24:07.003Z,78.75
2023-03-07T21:26:36.781Z,77.81
2023-03-07T21:29:09.012Z,77.55
2023-03-07T21:31:36.802Z,77.46
2023-03-07T21:34:08.591Z,77.44
2023-03-07T21:36:40.687Z,77.18
2023-03-07T21:39:09.719Z,77.42
2023-03-07T21:41:36.575Z,76.47
2023-03-07T21:44:06.202Z,76.19
2023-03-07T21:46:36.997Z,76.75
2023-03-07T21:49:07.506Z,76.01
2023-03-07T21:51:37.430Z,75.94
2023-03-07T21:54:08.636Z,75.82
2023-03-07T21:56:37.974Z,76.16
2023-03-07T21:59:08.231Z,77.70
2023-03-07T22:01:37.604Z,78.00
2023-03-07T22:04:07.817Z,78.47
2023-03-07T22:06:36.850Z,78.63
2023-03-07T22:09:03.456Z,78.51
2023-03-07T22:11:30.796Z,77.97
2023-03-07T22:13:57.281Z,78.52
2023-03-07T22:16:24.187Z,78.04
2023-03-07T22:18:57.909Z,77.99
2023-03-07T22:21:27.841Z,78.19
2023-03-07T22:24:00.625Z,78.79
2023-03-07T22:26:28.878Z,79.21
2023-03-07T22:29:07.348Z,78.91
2023-03-07T22:31:33.895Z,78.94
2023-03-07T22:34:00.572Z,79.32
2023-03-07T22:36:27.442Z,78.67
2023-03-07T22:38:55.667Z,79.14
2023-03-07T22:41:24.233Z,79.02
2023-03-07T22:43:52.603Z,78.42
2023-03-07T22:46:19.930Z,79.01
2023-03-07T22:48:46.901Z,79.23
2023-03-07T22:51:20.831Z,79.22
2023-03-07T22:53:48.111Z,79.62
2023-03-07T22:56:26.643Z,79.64
2023-03-07T22:58:56.445Z,79.72
2023-03-07T23:01:27.798Z,80.47
2023-03-07T23:03:55.830Z,81.02
2023-03-07T23:06:24.218Z,81.61
2023-03-07T23:08:52.768Z,81.04
2023-03-07T23:11:21.616Z,81.75
2023-03-07T23:13:48.126Z,83.11
2023-03-07T23:16:17.776Z,85.90
2023-03-07T23:18:45.431Z,86.92
2023-03-07T23:21:15.269Z,87.95
2023-03-07T23:23:42.118Z,87.60
2023-03-07T23:26:08.981Z,88.60
2023-03-07T23:28:35.653Z,89.57
2023-03-07T23:31:02.189Z,89.40
2023-03-07T23:33:28.715Z,89.17
2023-03-07T23:35:59.264Z,89.21
2023-03-07T23:38:25.735Z,88.75
2023-03-07T23:40:52.209Z,88.19
2023-03-07T23:43:18.636Z,87.73
2023-03-07T23:45:45.133Z,87.41
2023-03-07T23:48:11.565Z,88.32
2023-03-07T23:50:41.080Z,88.41
2023-03-07T23:53:07.604Z,89.08
2023-03-07T23:55:34.085Z,89.03
2023-03-07T23:58:00.557Z,89.76
